createdAt,value
2022-08-04T00:02:21.647Z,20.10
2022-08-04T00:04:53.554Z,19.90
2022-08-04T00:07:44.927Z,22.50
2022-08-04T00:10:16.636Z,22.70
2022-08-04T00:12:47.446Z,19.80
2022-08-04T00:15:16.643Z,19.60
2022-08-04T00:17:55.200Z,21.10
2022-08-04T00:20:24.662Z,23.20
2022-08-04T00:22:52.960Z,26.70
2022-08-04T00:25:19.830Z,22.30
2022-08-04T00:27:46.725Z,23.30
2022-08-04T00:30:13.303Z,21.70
2022-08-04T00:32:43.218Z,24.00
2022-08-04T00:35:14.775Z,24.60
2022-08-04T00:37:44.906Z,24.70
2022-08-04T00:40:21.963Z,22.70
2022-08-04T00:42:59.025Z,23.20
2022-08-04T00:46:15.843Z,25.20
2022-08-04T00:49:01.700Z,27.30
2022-08-04T00:51:47.101Z,34.00
2022-08-04T00:54:23.962Z,36.60
2022-08-04T00:57:09.309Z,33.60
2022-08-04T01:00:12.177Z,36.40
2022-08-04T01:02:50.625Z,35.80
2022-08-04T01:05:55.090Z,33.20
2022-08-04T01:08:55.839Z,36.90
2022-08-04T01:11:27.101Z,29.30
2022-08-04T01:14:12.171Z,29.80
2022-08-04T01:16:49.563Z,32.40
2022-08-04T01:19:45.004Z,31.10
2022-08-04T01:22:32.917Z,32.60
2022-08-04T01:25:17.996Z,29.00
2022-08-04T01:27:53.100Z,31.10
2022-08-04T01:30:21.141Z,25.50
2022-08-04T01:32:53.817Z,26.20
2022-08-04T01:35:47.481Z,27.20
2022-08-04T01:38:33.348Z,27.30
2022-08-04T01:41:04.626Z,23.90
2022-08-04T01:43:33.511Z,25.30
2022-08-04T01:46:03.647Z,23.20
2022-08-04T01:48:31.010Z,20.90
2022-08-04T01:51:06.662Z,22.80
2022-08-04T01:53:35.783Z,21.60
2022-08-04T01:56:04.964Z,23.10
2022-08-04T01:58:34.070Z,24.00
2022-08-04T02:01:08.482Z,24.10
2022-08-04T02:04:21.987Z,24.20
2022-08-04T02:06:40.009Z,19.70
2022-08-04T02:09:17.397Z,20.70
2022-08-04T02:11:58.923Z,19.80
2022-08-04T02:14:30.326Z,20.80
2022-08-04T02:16:57.297Z,22.10
2022-08-04T02:19:40.491Z,19.20
2022-08-04T02:22:09.165Z,18.70
2022-08-04T02:24:45.752Z,19.60
2022-08-04T02:27:14.696Z,20.20
2022-08-04T02:29:51.958Z,21.40
2022-08-04T02:32:28.806Z,24.60
2022-08-04T02:35:03.689Z,25.50
2022-08-04T02:37:34.098Z,23.30
2022-08-04T02:40:04.651Z,23.10
2022-08-04T02:42:33.186Z,24.00
2022-08-04T02:45:01.081Z,22.80
2022-08-04T02:48:30.659Z,24.90
2022-08-04T02:50:29.100Z,23.40
2022-08-04T02:53:00.766Z,23.20
2022-08-04T02:55:29.842Z,23.30
2022-08-04T02:57:59.085Z,23.50
2022-08-04T03:00:26.755Z,24.50
2022-08-04T03:03:09.738Z,20.50
2022-08-04T03:06:21.073Z,21.00
2022-08-04T03:09:12.587Z,19.30
2022-08-04T03:12:10.543Z,19.40
2022-08-04T03:14:55.211Z,22.50
2022-08-04T03:17:53.246Z,19.80
2022-08-04T03:20:40.506Z,18.60
2022-08-04T03:23:29.076Z,23.90
2022-08-04T03:26:14.185Z,18.90
2022-08-04T03:28:53.087Z,20.00
2022-08-04T03:32:01.198Z,19.60
2022-08-04T03:34:36.592Z,18.60
2022-08-04T03:37:12.102Z,21.50
2022-08-04T03:40:16.263Z,20.40
2022-08-04T03:43:57.516Z,19.90
2022-08-04T03:46:09.936Z,22.00
2022-08-04T03:49:14.472Z,18.60
2022-08-04T03:51:59.634Z,19.10
2022-08-04T03:54:45.334Z,19.00
2022-08-04T03:57:45.702Z,18.20
2022-08-04T04:00:21.416Z,16.30
2022-08-04T04:03:28.166Z,13.20
2022-08-04T04:06:22.991Z,11.20
2022-08-04T04:09:20.760Z,14.30
2022-08-04T04:11:57.251Z,10.00
2022-08-04T04:14:48.984Z,7.90
2022-08-04T04:17:37.646Z,10.90
2022-08-04T04:20:49.800Z,10.40
2022-08-04T04:23:40.571Z,9.90
2022-08-04T04:26:26.840Z,7.70
2022-08-04T04:29:05.823Z,7.70
2022-08-04T04:31:52.008Z,8.90
2022-08-04T04:34:46.249Z,10.50
2022-08-04T04:37:25.432Z,9.00
2022-08-04T04:40:30.072Z,7.60
2022-08-04T04:43:18.635Z,10.50
2022-08-04T04:45:55.944Z,6.80
2022-08-04T04:48:44.476Z,9.20
2022-08-04T04:51:28.855Z,13.70
2022-08-04T04:54:34.291Z,7.70
2022-08-04T04:57:18.686Z,8.70
2022-08-04T05:00:02.354Z,7.70
2022-08-04T05:02:28.932Z,9.50
2022-08-04T05:05:11.354Z,8.10
2022-08-04T05:07:56.157Z,8.10
2022-08-04T05:10:44.804Z,8.00
2022-08-04T05:14:34.917Z,10.50
2022-08-04T05:16:22.440Z,9.20
2022-08-04T05:18:58.472Z,9.20
2022-08-04T05:21:42.331Z,9.60
2022-08-04T05:24:14.051Z,9.40
2022-08-04T05:26:48.735Z,10.30
2022-08-04T05:29:37.400Z,9.90
2022-08-04T05:32:13.316Z,13.80
2022-08-04T05:34:45.288Z,7.30
2022-08-04T05:37:17.500Z,10.40
2022-08-04T05:39:48.494Z,7.80
2022-08-04T05:42:16.638Z,13.50
2022-08-04T05:44:50.463Z,10.10
2022-08-04T05:47:18.601Z,9.50
2022-08-04T05:49:45.840Z,9.80
2022-08-04T05:52:30.281Z,9.40
2022-08-04T05:54:59.104Z,8.90
2022-08-04T05:57:27.065Z,7.40
2022-08-04T05:59:55.858Z,5.60
2022-08-04T06:02:24.709Z,6.80
2022-08-04T06:04:53.365Z,7.70
2022-08-04T06:07:20.477Z,9.90
2022-08-04T06:09:47.849Z,8.50
2022-08-04T06:12:35.218Z,6.70
2022-08-04T06:15:02.840Z,8.40
2022-08-04T06:18:33.081Z,6.90
2022-08-04T06:20:23.921Z,10.80
2022-08-04T06:22:55.593Z,8.70
2022-08-04T06:25:31.504Z,6.90
2022-08-04T06:27:58.969Z,13.00
2022-08-04T06:30:28.493Z,8.30
2022-08-04T06:33:04.260Z,8.30
2022-08-04T06:35:33.337Z,8.30
2022-08-04T06:38:01.728Z,8.40
2022-08-04T06:40:31.736Z,9.60
2022-08-04T06:43:01.681Z,7.40
2022-08-04T06:45:29.415Z,5.90
2022-08-04T06:47:56.803Z,7.90
2022-08-04T06:51:24.373Z,5.70
2022-08-04T06:53:12.282Z,9.00
2022-08-04T06:55:40.934Z,6.80
2022-08-04T06:58:08.533Z,7.50
2022-08-04T07:00:38.064Z,7.90
2022-08-04T07:03:05.637Z,9.90
2022-08-04T07:05:32.460Z,6.80
2022-08-04T07:07:59.646Z,8.00
2022-08-04T07:10:29.791Z,6.00
2022-08-04T07:12:58.075Z,7.70
2022-08-04T07:15:28.673Z,6.00
2022-08-04T07:17:56.854Z,8.90
2022-08-04T07:20:35.920Z,9.80
2022-08-04T07:25:59.532Z,8.10
2022-08-04T07:28:32.884Z,11.50
2022-08-04T07:30:59.381Z,6.30
2022-08-04T07:33:26.580Z,8.80
2022-08-04T07:36:04.569Z,6.10
2022-08-04T07:38:37.855Z,9.20
2022-08-04T07:44:05.707Z,9.10
2022-08-04T07:46:32.649Z,8.60
2022-08-04T07:49:02.946Z,5.50
2022-08-04T07:51:31.019Z,7.60
2022-08-04T07:53:58.815Z,5.40
2022-08-04T07:56:26.947Z,5.30
2022-08-04T07:58:54.581Z,6.20
2022-08-04T08:01:22.944Z,6.20
2022-08-04T08:03:52.843Z,4.70
2022-08-04T08:06:31.726Z,5.00
2022-08-04T08:09:00.313Z,7.10
2022-08-04T08:12:38.043Z,4.70
2022-08-04T08:14:16.924Z,6.20
2022-08-04T08:16:43.893Z,6.90
2022-08-04T08:19:11.050Z,7.90
2022-08-04T08:21:59.219Z,2.70
2022-08-04T08:24:24.414Z,3.50
2022-08-04T08:26:51.184Z,3.50
2022-08-04T08:29:19.896Z,2.40
2022-08-04T08:31:56.216Z,5.10
2022-08-04T08:34:27.829Z,3.30
2022-08-04T08:37:00.748Z,2.70
2022-08-04T08:39:53.327Z,3.40
2022-08-04T08:42:47.678Z,3.60
2022-08-04T08:45:35.588Z,2.80
2022-08-04T08:48:43.150Z,2.60
2022-08-04T08:51:40.610Z,3.90
2022-08-04T08:54:32.551Z,3.50
2022-08-04T08:57:08.300Z,4.90
2022-08-04T09:00:00.622Z,4.40
2022-08-04T09:02:42.421Z,2.60
2022-08-04T09:05:21.245Z,5.20
2022-08-04T09:08:21.200Z,4.50
2022-08-04T09:13:30.249Z,4.80
2022-08-04T09:16:02.664Z,4.10
2022-08-04T09:18:56.698Z,3.10
2022-08-04T09:21:37.376Z,3.00
2022-08-04T09:24:34.724Z,3.50
2022-08-04T09:27:00.679Z,3.30
2022-08-04T09:29:39.383Z,4.10
2022-08-04T09:32:32.827Z,4.50
2022-08-04T09:35:15.412Z,3.50
2022-08-04T09:37:48.635Z,3.00
2022-08-04T09:40:52.772Z,4.10
2022-08-04T09:43:30.972Z,3.60
2022-08-04T09:46:22.846Z,3.60
2022-08-04T09:48:58.399Z,5.90
2022-08-04T09:51:58.597Z,2.50
2022-08-04T09:54:44.007Z,3.90
2022-08-04T09:57:24.725Z,4.20
2022-08-04T09:59:58.734Z,4.90
2022-08-04T10:02:26.875Z,3.10
2022-08-04T10:04:56.886Z,4.90
2022-08-04T10:08:02.089Z,3.50
2022-08-04T10:10:45.417Z,2.30
2022-08-04T10:13:36.463Z,3.20
2022-08-04T10:16:09.052Z,2.90
2022-08-04T10:19:15.556Z,3.50
2022-08-04T10:22:27.097Z,2.70
2022-08-04T10:24:54.212Z,4.30
2022-08-04T10:27:28.159Z,3.80
2022-08-04T10:30:05.708Z,3.20
2022-08-04T10:32:43.174Z,4.30
2022-08-04T10:35:13.374Z,3.00
2022-08-04T10:38:00.419Z,5.30
2022-08-04T10:40:33.599Z,5.50
2022-08-04T10:43:35.410Z,3.50
2022-08-04T10:46:07.614Z,4.90
2022-08-04T10:48:40.705Z,3.90
2022-08-04T10:51:26.489Z,2.30
2022-08-04T10:53:58.341Z,5.40
2022-08-04T10:56:56.796Z,5.10
2022-08-04T10:59:30.022Z,3.20
2022-08-04T11:02:06.267Z,2.80
2022-08-04T11:04:47.715Z,4.00
2022-08-04T11:07:17.319Z,3.90
2022-08-04T11:09:45.090Z,3.40
2022-08-04T11:12:19.717Z,4.00
2022-08-04T11:14:56.073Z,3.80
2022-08-04T11:17:28.050Z,3.60
2022-08-04T11:20:34.182Z,1.80
2022-08-04T11:23:05.987Z,3.60
2022-08-04T11:25:51.843Z,4.00
2022-08-04T11:29:00.753Z,3.30
2022-08-04T11:31:39.485Z,2.40
2022-08-04T11:34:19.623Z,3.30
2022-08-04T11:36:59.066Z,2.70
2022-08-04T11:39:41.451Z,4.90
2022-08-04T11:42:20.408Z,3.10
2022-08-04T11:44:54.950Z,4.00
2022-08-04T11:47:24.460Z,4.00
2022-08-04T11:50:33.380Z,3.50
2022-08-04T11:53:01.702Z,3.50
2022-08-04T11:55:31.398Z,7.20
2022-08-04T11:57:58.654Z,4.70
2022-08-04T12:00:28.730Z,4.30
2022-08-04T12:05:36.693Z,10.40
2022-08-04T12:08:22.486Z,4.30
2022-08-04T12:11:24.363Z,3.00
2022-08-04T12:14:18.546Z,2.80
2022-08-04T12:16:45.323Z,5.80
2022-08-04T12:19:58.700Z,5.40
2022-08-04T12:22:36.277Z,4.30
2022-08-04T12:25:10.099Z,3.70
2022-08-04T12:27:41.831Z,4.60
2022-08-04T12:31:01.293Z,4.10
2022-08-04T12:33:09.002Z,3.20
2022-08-04T12:36:10.200Z,3.50
2022-08-04T12:38:46.998Z,2.40
2022-08-04T12:41:21.046Z,4.20
2022-08-04T12:43:47.618Z,6.70
2022-08-04T12:46:27.001Z,4.00
2022-08-04T12:49:01.760Z,3.90
2022-08-04T12:52:06.581Z,3.90
2022-08-04T12:54:28.850Z,3.50
2022-08-04T12:56:59.062Z,5.50
2022-08-04T12:59:26.025Z,4.40
2022-08-04T13:02:09.815Z,2.80
2022-08-04T13:04:42.788Z,2.80
2022-08-04T13:07:26.688Z,4.10
2022-08-04T13:09:53.405Z,3.90
2022-08-04T13:12:32.759Z,3.40
2022-08-04T13:15:10.844Z,3.60
2022-08-04T13:17:50.969Z,4.40
2022-08-04T13:20:25.919Z,2.60
2022-08-04T13:23:06.342Z,4.10
2022-08-04T13:26:44.935Z,3.50
2022-08-04T13:28:28.374Z,4.20
2022-08-04T13:31:07.521Z,4.30
2022-08-04T13:33:37.776Z,5.70
2022-08-04T13:36:07.161Z,5.30
2022-08-04T13:38:36.412Z,3.30
2022-08-04T13:41:05.708Z,2.60
2022-08-04T13:44:15.821Z,3.20
2022-08-04T13:46:28.719Z,3.00
2022-08-04T13:49:25.983Z,3.10
2022-08-04T13:51:58.488Z,3.20
2022-08-04T13:54:45.992Z,3.90
2022-08-04T13:57:19.745Z,2.70
2022-08-04T13:59:53.574Z,3.50
2022-08-04T14:02:45.133Z,2.70
2022-08-04T14:05:29.516Z,4.20
2022-08-04T14:08:23.691Z,3.00
2022-08-04T14:10:57.496Z,3.30
2022-08-04T14:13:41.323Z,3.60
2022-08-04T14:16:17.615Z,2.40
2022-08-04T14:18:45.487Z,2.30
2022-08-04T14:21:14.160Z,2.40
2022-08-04T14:23:49.859Z,2.80
2022-08-04T14:26:33.788Z,2.80
2022-08-04T14:29:27.692Z,4.60
2022-08-04T14:32:05.925Z,3.50
2022-08-04T14:34:41.766Z,2.80
2022-08-04T14:40:07.807Z,2.10
2022-08-04T14:42:54.995Z,2.20
2022-08-04T14:45:33.553Z,2.20
2022-08-04T14:48:02.247Z,4.00
2022-08-04T14:50:41.191Z,3.50
2022-08-04T14:53:21.977Z,3.90
2022-08-04T14:56:00.048Z,2.70
2022-08-04T14:58:36.762Z,3.50
2022-08-04T15:03:50.518Z,2.10
2022-08-04T15:06:22.541Z,5.20
2022-08-04T15:08:51.173Z,4.10
2022-08-04T15:11:23.406Z,3.00
2022-08-04T15:13:52.487Z,4.50
2022-08-04T15:16:20.350Z,4.10
2022-08-04T15:18:49.623Z,2.80
2022-08-04T15:23:44.344Z,6.30
2022-08-04T15:26:19.613Z,5.10
2022-08-04T15:28:53.413Z,2.90
2022-08-04T15:32:08.014Z,2.80
2022-08-04T15:34:09.205Z,3.90
2022-08-04T15:36:57.010Z,2.80
2022-08-04T15:39:27.166Z,3.50
2022-08-04T15:42:15.020Z,4.30
2022-08-04T15:45:21.723Z,4.20
2022-08-04T15:48:03.488Z,2.70
2022-08-04T15:50:31.336Z,3.00
2022-08-04T15:53:00.918Z,4.00
2022-08-04T15:55:37.032Z,3.10
2022-08-04T15:58:05.215Z,3.10
2022-08-04T16:00:50.540Z,5.00
2022-08-04T16:03:58.106Z,3.50
2022-08-04T16:06:22.150Z,2.10
2022-08-04T16:08:57.299Z,2.40
2022-08-04T16:11:31.785Z,2.20
2022-08-04T16:13:58.758Z,3.10
2022-08-04T16:16:46.016Z,5.70
2022-08-04T16:19:35.834Z,6.30
2022-08-04T16:22:04.615Z,4.70
2022-08-04T16:24:39.923Z,3.00
2022-08-04T16:27:08.630Z,2.70
2022-08-04T16:29:43.207Z,3.50
2022-08-04T16:32:14.816Z,4.10
2022-08-04T16:34:55.160Z,3.50
2022-08-04T16:37:31.474Z,3.20
2022-08-04T16:40:38.426Z,5.60
2022-08-04T16:43:08.578Z,3.10
2022-08-04T16:45:52.329Z,5.60
2022-08-04T16:48:21.153Z,4.10
2022-08-04T16:51:04.637Z,3.90
2022-08-04T16:53:53.008Z,4.10
2022-08-04T16:56:33.510Z,5.50
2022-08-04T16:59:12.519Z,3.90
2022-08-04T17:01:50.187Z,2.80
2022-08-04T17:04:17.369Z,7.00
2022-08-04T17:06:45.979Z,3.30
2022-08-04T17:09:13.741Z,4.60
2022-08-04T17:11:42.017Z,5.70
2022-08-04T17:14:08.705Z,6.20
2022-08-04T17:16:39.377Z,4.00
2022-08-04T17:19:24.057Z,3.60
2022-08-04T17:22:11.595Z,6.60
2022-08-04T17:24:39.908Z,5.50
2022-08-04T17:28:09.474Z,4.30
2022-08-04T17:29:54.399Z,6.50
2022-08-04T17:32:22.457Z,5.20
2022-08-04T17:35:00.308Z,5.20
2022-08-04T17:37:41.208Z,4.60
2022-08-04T17:40:17.993Z,6.80
2022-08-04T17:42:51.082Z,4.80
2022-08-04T17:45:50.926Z,4.40
2022-08-04T17:48:08.455Z,5.30
2022-08-04T17:50:35.994Z,5.30
2022-08-04T17:53:12.213Z,7.70
2022-08-04T17:55:40.581Z,6.90
2022-08-04T18:01:24.253Z,5.70
2022-08-04T18:03:53.620Z,5.80
2022-08-04T18:06:25.543Z,6.10
2022-08-04T18:08:57.869Z,6.90
2022-08-04T18:11:29.686Z,8.90
2022-08-04T18:14:10.179Z,5.00
2022-08-04T18:16:44.492Z,5.20
2022-08-04T18:19:12.829Z,14.40
2022-08-04T18:21:46.478Z,8.10
2022-08-04T18:24:34.108Z,6.00
2022-08-04T18:27:15.960Z,7.40
2022-08-04T18:30:14.500Z,8.50
2022-08-04T18:32:33.245Z,11.80
2022-08-04T18:35:05.073Z,7.00
2022-08-04T18:40:30.240Z,7.40
2022-08-04T18:43:02.276Z,10.10
2022-08-04T18:45:34.089Z,9.00
2022-08-04T18:48:04.108Z,7.40
2022-08-04T18:51:09.295Z,11.70
2022-08-04T18:53:35.881Z,9.90
2022-08-04T18:56:19.922Z,11.40
2022-08-04T18:58:53.504Z,9.10
2022-08-04T19:01:21.032Z,10.40
2022-08-04T19:03:57.766Z,13.90
2022-08-04T19:06:25.723Z,10.30
2022-08-04T19:08:53.292Z,11.10
2022-08-04T19:11:37.988Z,10.10
2022-08-04T19:14:06.555Z,12.40
2022-08-04T19:16:40.735Z,11.00
2022-08-04T19:19:07.686Z,17.70
2022-08-04T19:21:59.456Z,14.40
2022-08-04T19:24:32.369Z,23.00
2022-08-04T19:27:06.562Z,34.60
2022-08-04T19:29:41.268Z,37.80
2022-08-04T19:32:14.930Z,32.00
2022-08-04T19:34:46.084Z,29.90
2022-08-04T19:37:57.689Z,26.80
2022-08-04T19:40:07.413Z,21.90
2022-08-04T19:42:35.182Z,26.10
2022-08-04T19:45:02.559Z,24.10
2022-08-04T19:48:12.257Z,22.60
2022-08-04T19:50:16.501Z,19.00
2022-08-04T19:52:51.655Z,20.80
2022-08-04T19:55:37.584Z,20.70
2022-08-04T19:58:08.555Z,19.80
2022-08-04T20:04:09.340Z,17.50
2022-08-04T20:06:10.648Z,17.10
2022-08-04T20:08:37.214Z,17.70
2022-08-04T20:11:14.642Z,14.20
2022-08-04T20:13:42.638Z,18.20
2022-08-04T20:16:28.687Z,20.50
2022-08-04T20:19:02.375Z,14.20
2022-08-04T20:21:55.641Z,13.80
2022-08-04T20:24:39.483Z,17.30
2022-08-04T20:27:08.853Z,14.00
2022-08-04T20:29:40.812Z,11.30
2022-08-04T20:32:09.974Z,13.40
2022-08-04T20:34:37.734Z,12.20
2022-08-04T20:37:07.016Z,12.50
2022-08-04T20:39:37.006Z,18.90
2022-08-04T20:42:03.876Z,11.90
2022-08-04T20:44:30.417Z,12.70
2022-08-04T20:46:56.933Z,13.30
2022-08-04T20:49:35.324Z,14.10
2022-08-04T20:52:12.080Z,12.90
2022-08-04T20:54:42.722Z,16.40
2022-08-04T20:57:16.686Z,11.80
2022-08-04T20:59:50.348Z,13.00
2022-08-04T21:02:27.634Z,14.30
2022-08-04T21:04:54.400Z,13.30
2022-08-04T21:07:21.814Z,15.20
2022-08-04T21:09:50.776Z,11.60
2022-08-04T21:12:27.223Z,11.50
2022-08-04T21:14:56.178Z,19.00
2022-08-04T21:17:59.415Z,11.60
2022-08-04T21:20:12.863Z,11.30
2022-08-04T21:22:40.117Z,11.50
2022-08-04T21:25:14.528Z,13.50
2022-08-04T21:27:43.613Z,16.90
2022-08-04T21:30:24.008Z,15.10
2022-08-04T21:32:52.303Z,14.10
2022-08-04T21:35:19.564Z,12.70
2022-08-04T21:37:58.165Z,14.90
2022-08-04T21:40:32.685Z,12.90
2022-08-04T21:43:03.377Z,17.20
2022-08-04T21:45:36.246Z,15.00
2022-08-04T21:48:04.893Z,15.40
2022-08-04T21:50:31.664Z,14.60
2022-08-04T21:52:59.063Z,14.80
2022-08-04T21:56:00.268Z,15.00
2022-08-04T22:00:59.988Z,14.70
2022-08-04T22:03:53.612Z,16.70
2022-08-04T22:06:17.550Z,15.10
2022-08-04T22:08:49.155Z,13.80
2022-08-04T22:11:49.133Z,15.40
2022-08-04T22:14:17.329Z,13.80
2022-08-04T22:16:54.503Z,15.90
2022-08-04T22:19:23.288Z,17.10
2022-08-04T22:21:55.666Z,16.80
2022-08-04T22:24:22.407Z,17.00
2022-08-04T22:26:49.174Z,13.30
2022-08-04T22:29:17.646Z,16.00
2022-08-04T22:31:56.089Z,16.40
2022-08-04T22:34:25.215Z,16.20
2022-08-04T22:36:53.876Z,14.20
2022-08-04T22:39:23.659Z,15.50
2022-08-04T22:42:04.107Z,14.80
2022-08-04T22:44:33.384Z,17.70
2022-08-04T22:47:01.030Z,17.70
2022-08-04T22:49:31.734Z,14.50
2022-08-04T22:54:28.616Z,15.60
2022-08-04T22:56:57.042Z,15.90
2022-08-04T22:59:24.401Z,15.50
2022-08-04T23:01:59.602Z,17.50
2022-08-04T23:04:29.631Z,17.60
2022-08-04T23:06:56.511Z,18.50
2022-08-04T23:09:27.090Z,14.60
2022-08-04T23:12:27.169Z,14.90
2022-08-04T23:14:56.546Z,19.10
2022-08-04T23:17:24.710Z,15.90
2022-08-04T23:19:57.949Z,17.50
2022-08-04T23:22:41.541Z,16.40
2022-08-04T23:25:16.446Z,16.20
2022-08-04T23:27:51.050Z,13.30
2022-08-04T23:30:29.504Z,16.20
2022-08-04T23:32:57.838Z,16.50
2022-08-04T23:35:24.426Z,15.80
2022-08-04T23:37:56.868Z,14.10
2022-08-04T23:40:34.227Z,14.00
2022-08-04T23:43:12.317Z,15.40
2022-08-04T23:46:05.090Z,15.30
2022-08-04T23:48:39.119Z,16.20
2022-08-04T23:51:13.959Z,17.20
2022-08-04T23:54:01.881Z,15.70
2022-08-04T23:56:34.348Z,14.10
2022-08-04T23:59:03.780Z,12.90
